createdAt,value
2017-08-27T11:19:20.519Z,69.00
2017-08-27T11:21:48.118Z,69.50
2017-08-27T11:24:16.088Z,68.20
2017-08-27T11:26:43.843Z,68.50
2017-08-27T11:29:11.433Z,68.10
2017-08-27T11:31:39.799Z,67.70
2017-08-27T11:34:08.305Z,66.70
2017-08-27T11:36:35.903Z,66.50
2017-08-27T11:39:03.498Z,66.70
2017-08-27T11:41:32.142Z,66.80
2017-08-27T11:43:59.733Z,65.90
2017-08-27T11:46:28.167Z,65.30
2017-08-27T11:48:55.758Z,64.40
2017-08-27T11:51:24.222Z,64.10
2017-08-27T11:53:51.854Z,63.30
2017-08-27T11:56:19.452Z,64.00
2017-08-27T12:00:13.801Z,65.00
2017-08-27T12:02:41.501Z,63.30
2017-08-27T12:05:10.019Z,63.90
2017-08-27T12:07:37.616Z,62.40
2017-08-27T12:10:05.248Z,62.60
2017-08-27T12:12:32.854Z,62.70
2017-08-27T12:15:00.581Z,61.40
2017-08-27T12:17:28.298Z,60.90
2017-08-27T12:19:56.790Z,60.10
2017-08-27T12:22:25.262Z,58.80
2017-08-27T12:24:52.858Z,58.80
2017-08-27T12:27:20.559Z,59.60
2017-08-27T12:29:48.250Z,59.40
2017-08-27T12:32:15.897Z,59.40
2017-08-27T12:34:43.485Z,59.40
2017-08-27T12:37:11.963Z,59.30
2017-08-27T12:39:39.621Z,59.30
2017-08-27T12:42:07.282Z,59.00
2017-08-27T12:44:35.667Z,57.70
2017-08-27T12:47:03.337Z,57.70
2017-08-27T12:49:30.927Z,57.40
2017-08-27T12:51:58.515Z,58.00
2017-08-27T12:54:26.215Z,57.50
2017-08-27T12:56:54.567Z,58.40
2017-08-27T12:59:22.153Z,58.30
2017-08-27T13:01:54.798Z,58.60
2017-08-27T13:04:23.330Z,59.10
2017-08-27T13:06:50.982Z,59.30
2017-08-27T13:09:18.588Z,59.40
2017-08-27T13:11:46.251Z,59.40
2017-08-27T13:14:13.864Z,59.90
2017-08-27T13:16:41.550Z,60.30
2017-08-27T13:19:10.026Z,61.10
2017-08-27T13:21:37.674Z,60.60
2017-08-27T13:24:05.356Z,59.80
2017-08-27T13:26:32.999Z,59.80
2017-08-27T13:29:00.595Z,60.40
2017-08-27T13:31:28.226Z,60.50
2017-08-27T13:33:55.855Z,60.80
2017-08-27T13:36:23.450Z,59.60
2017-08-27T13:38:52.650Z,59.60
2017-08-27T13:41:21.043Z,58.60
2017-08-27T13:43:48.636Z,58.60
2017-08-27T13:46:16.258Z,57.80
2017-08-27T13:48:44.909Z,57.40
2017-08-27T13:51:12.506Z,57.20
2017-08-27T13:53:41.014Z,57.00
2017-08-27T13:56:09.441Z,56.10
2017-08-27T13:58:37.946Z,56.30
2017-08-27T14:01:06.482Z,56.30
2017-08-27T14:03:35.029Z,56.30
2017-08-27T14:06:03.455Z,56.20
2017-08-27T14:08:31.922Z,56.70
2017-08-27T14:10:59.693Z,57.00
2017-08-27T14:13:27.285Z,56.60
2017-08-27T14:15:54.966Z,56.60
2017-08-27T14:18:22.626Z,56.80
2017-08-27T14:20:51.034Z,57.00
2017-08-27T14:23:19.472Z,57.30
2017-08-27T14:25:47.060Z,57.20
2017-08-27T14:28:14.681Z,57.40
2017-08-27T14:30:42.374Z,57.50
2017-08-27T14:33:10.747Z,57.60
2017-08-27T14:35:39.159Z,57.20
2017-08-27T14:38:07.643Z,57.20
2017-08-27T14:40:35.234Z,56.70
2017-08-27T14:43:02.842Z,56.60
2017-08-27T14:45:30.502Z,56.70
2017-08-27T14:47:59.711Z,57.00
2017-08-27T14:50:28.869Z,57.70
2017-08-27T14:52:57.235Z,57.70
2017-08-27T14:55:25.766Z,58.10
2017-08-27T14:57:53.362Z,58.50
2017-08-27T15:00:21.903Z,58.80
2017-08-27T15:02:50.498Z,59.20
2017-08-27T15:05:19.039Z,59.40
2017-08-27T15:07:46.623Z,59.60
2017-08-27T15:10:14.986Z,59.80
2017-08-27T15:12:43.513Z,59.90
2017-08-27T15:15:11.163Z,60.10
2017-08-27T15:17:38.828Z,60.20
2017-08-27T15:20:07.312Z,60.50
2017-08-27T15:22:35.746Z,60.80
2017-08-27T15:25:03.689Z,60.90
2017-08-27T15:27:32.145Z,61.00
2017-08-27T15:30:00.625Z,61.20
2017-08-27T15:32:29.019Z,61.40
2017-08-27T15:34:57.682Z,61.60
2017-08-27T15:37:26.174Z,61.60
2017-08-27T15:39:54.670Z,61.70
2017-08-27T15:42:22.249Z,61.80
2017-08-27T15:44:49.849Z,61.80
2017-08-27T15:47:18.358Z,61.80
2017-08-27T15:49:45.943Z,61.90
2017-08-27T15:52:14.403Z,62.10
2017-08-27T15:54:42.066Z,62.20
2017-08-27T15:57:10.557Z,62.20
2017-08-27T15:59:38.934Z,62.20
2017-08-27T16:02:08.065Z,62.40
2017-08-27T16:04:35.693Z,62.40
2017-08-27T16:07:04.168Z,62.40
2017-08-27T16:09:31.759Z,62.60
2017-08-27T16:12:00.311Z,62.80
2017-08-27T16:14:28.831Z,62.70
2017-08-27T16:16:56.565Z,62.60
2017-08-27T16:19:25.808Z,62.80
2017-08-27T16:21:53.399Z,62.80
2017-08-27T16:24:21.800Z,62.70
2017-08-27T16:26:50.238Z,62.80
2017-08-27T16:29:18.810Z,62.70
2017-08-27T16:31:47.174Z,62.80
2017-08-27T16:34:14.762Z,63.00
2017-08-27T16:36:43.163Z,63.10
2017-08-27T16:39:11.677Z,63.00
2017-08-27T16:41:40.223Z,63.10
2017-08-27T16:44:08.770Z,63.10
2017-08-27T16:46:37.200Z,63.20
2017-08-27T16:49:04.830Z,63.10
2017-08-27T16:51:32.415Z,63.10
2017-08-27T16:54:00.011Z,63.00
2017-08-27T16:56:28.374Z,63.10
2017-08-27T16:58:56.898Z,63.20
2017-08-27T17:01:24.616Z,61.60
2017-08-27T17:03:52.211Z,61.40
2017-08-27T17:06:20.678Z,61.00
2017-08-27T17:08:48.267Z,60.90
2017-08-27T17:11:16.868Z,61.00
2017-08-27T17:13:45.707Z,60.80
2017-08-27T17:16:13.308Z,60.40
2017-08-27T17:18:41.743Z,60.60
2017-08-27T17:21:10.242Z,60.80
2017-08-27T17:23:37.892Z,61.00
2017-08-27T17:26:05.742Z,61.40
2017-08-27T17:28:34.319Z,60.80
2017-08-27T17:31:01.948Z,61.20
2017-08-27T17:33:29.547Z,61.50
2017-08-27T17:35:57.139Z,61.80
2017-08-27T17:38:24.780Z,62.00
2017-08-27T17:40:52.388Z,62.10
2017-08-27T17:43:19.993Z,62.30
2017-08-27T17:45:47.592Z,62.40
2017-08-27T17:48:15.226Z,62.60
2017-08-27T17:50:42.826Z,62.70
2017-08-27T17:53:11.418Z,63.00
2017-08-27T18:09:58.717Z,63.50
2017-08-27T18:12:27.315Z,63.50
2017-08-27T18:14:54.906Z,63.70
2017-08-27T18:17:22.502Z,63.70
2017-08-27T18:19:50.162Z,63.70
2017-08-27T18:22:17.800Z,64.10
2017-08-27T18:24:45.399Z,63.60
2017-08-27T18:27:13.105Z,63.50
2017-08-27T18:29:40.980Z,64.00
2017-08-27T18:32:08.595Z,64.20
2017-08-27T18:34:36.236Z,64.20
2017-08-27T18:37:03.898Z,64.40
2017-08-27T18:39:31.622Z,64.60
2017-08-27T18:41:59.223Z,64.60
2017-08-27T18:44:26.824Z,64.70
2017-08-27T18:46:54.446Z,64.80
2017-08-27T18:49:22.106Z,64.50
2017-08-27T18:51:49.775Z,64.40
2017-08-27T18:54:17.437Z,64.40
2017-08-27T18:56:45.031Z,64.20
2017-08-27T18:59:12.754Z,64.30
2017-08-27T19:01:41.120Z,64.30
2017-08-27T19:04:08.719Z,64.40
2017-08-27T19:06:36.328Z,64.30
2017-08-27T19:09:04.654Z,64.30
2017-08-27T19:11:32.351Z,64.30
2017-08-27T19:13:59.963Z,64.30
2017-08-27T19:16:28.324Z,65.10
2017-08-27T19:18:55.922Z,65.10
2017-08-27T19:21:24.238Z,65.40
2017-08-27T19:23:52.761Z,65.90
2017-08-27T19:26:20.427Z,66.00
2017-08-27T19:28:48.036Z,65.80
2017-08-27T19:31:16.465Z,65.70
2017-08-27T19:33:45.054Z,65.90
2017-08-27T19:36:12.723Z,66.00
2017-08-27T19:38:40.322Z,66.20
2017-08-27T19:41:08.067Z,66.30
2017-08-27T19:43:35.754Z,66.10
2017-08-27T19:46:03.416Z,65.80
2017-08-27T19:48:31.018Z,65.70
2017-08-27T19:50:58.699Z,65.60
2017-08-27T19:53:26.292Z,65.60
2017-08-27T19:55:53.934Z,65.50
2017-08-27T19:58:21.589Z,65.50
2017-08-27T20:00:49.243Z,65.60
2017-08-27T20:03:16.880Z,65.60
2017-08-27T20:05:44.573Z,65.60
2017-08-27T20:08:13.163Z,65.70
2017-08-27T20:10:40.758Z,65.70
2017-08-27T20:13:08.530Z,65.70
2017-08-27T20:15:36.933Z,65.70
2017-08-27T20:18:05.418Z,65.70
2017-08-27T20:20:33.116Z,65.80
2017-08-27T20:23:00.779Z,66.00
2017-08-27T20:25:28.377Z,66.10
2017-08-27T20:27:55.976Z,66.20
2017-08-27T20:30:24.528Z,66.30
2017-08-27T20:32:52.125Z,66.30
2017-08-27T20:35:19.809Z,66.30
2017-08-27T20:37:47.412Z,66.30
2017-08-27T20:40:15.030Z,66.30
2017-08-27T20:42:42.628Z,66.30
2017-08-27T20:45:10.274Z,66.40
2017-08-27T20:47:37.962Z,66.40
2017-08-27T20:50:06.401Z,66.40
2017-08-27T20:52:34.064Z,66.40
2017-08-27T20:55:02.438Z,66.50
2017-08-27T20:57:30.051Z,66.40
2017-08-27T20:59:58.604Z,66.40
2017-08-27T21:02:27.184Z,66.40
2017-08-27T21:04:54.833Z,66.50
2017-08-27T21:07:22.450Z,66.60
2017-08-27T21:09:50.048Z,66.60
2017-08-27T21:12:17.677Z,66.60
2017-08-27T21:14:45.280Z,66.60
2017-08-27T21:17:12.940Z,66.60
2017-08-27T21:19:40.606Z,66.60
2017-08-27T21:22:09.030Z,66.70
2017-08-27T21:24:36.676Z,66.70
2017-08-27T21:27:04.309Z,66.80
2017-08-27T21:29:31.976Z,66.90
2017-08-27T21:31:59.669Z,67.10
2017-08-27T21:34:27.273Z,67.40
2017-08-27T21:36:54.965Z,67.40
2017-08-27T21:39:22.562Z,67.50
2017-08-27T21:41:50.160Z,67.60
2017-08-27T21:44:17.751Z,67.50
2017-08-27T21:46:45.412Z,67.50
2017-08-27T21:49:13.018Z,67.40
2017-08-27T21:51:40.619Z,67.40
2017-08-27T21:54:08.228Z,67.30
2017-08-27T21:56:35.904Z,67.20
2017-08-27T21:59:03.629Z,67.20
2017-08-27T22:01:31.284Z,67.10
2017-08-27T22:03:59.782Z,67.10
2017-08-27T22:06:27.372Z,67.10
2017-08-27T22:08:54.967Z,67.10
2017-08-27T22:11:22.550Z,67.10
2017-08-27T22:13:50.152Z,67.00
2017-08-27T22:16:17.774Z,67.10
2017-08-27T22:18:45.437Z,67.10
2017-08-27T22:21:13.098Z,67.00
2017-08-27T22:23:40.688Z,67.10
2017-08-27T22:26:08.326Z,67.10
2017-08-27T22:28:35.987Z,67.10
2017-08-27T22:31:03.570Z,67.10
2017-08-27T22:33:31.210Z,67.00
2017-08-27T22:35:58.807Z,67.00
2017-08-27T22:38:26.402Z,67.00
2017-08-27T22:40:53.986Z,67.10
2017-08-27T22:43:21.703Z,67.10
2017-08-27T22:45:49.323Z,67.30
2017-08-27T22:48:17.702Z,67.60
2017-08-27T22:50:45.297Z,67.60
2017-08-27T22:53:13.026Z,67.90
2017-08-27T22:55:41.582Z,68.10
2017-08-27T22:58:09.240Z,68.40
2017-08-27T23:00:36.858Z,68.30
2017-08-27T23:03:04.499Z,68.20
2017-08-27T23:05:33.078Z,68.10
2017-08-27T23:08:01.458Z,68.30
2017-08-27T23:10:29.895Z,68.10
2017-08-27T23:12:57.491Z,68.30
2017-08-27T23:15:25.082Z,68.40
2017-08-27T23:17:52.723Z,69.30
2017-08-27T23:20:20.360Z,68.40
2017-08-27T23:22:48.721Z,68.50
2017-08-27T23:25:16.305Z,68.50
2017-08-27T23:27:43.893Z,68.50
2017-08-27T23:30:11.550Z,68.60
2017-08-27T23:32:39.967Z,68.80
2017-08-27T23:35:07.553Z,68.90
2017-08-27T23:37:35.134Z,69.00
2017-08-27T23:40:03.551Z,69.10
2017-08-27T23:42:31.147Z,69.20
2017-08-27T23:44:58.763Z,69.10
2017-08-27T23:47:27.119Z,69.40
2017-08-27T23:49:54.808Z,69.30
2017-08-27T23:52:23.188Z,69.40
2017-08-27T23:54:50.774Z,69.50
2017-08-27T23:57:18.410Z,69.30
2017-08-27T23:59:46.008Z,69.30
